createdAt,value
2019-05-06T00:02:05.248Z,942.43
2019-05-06T00:07:08.974Z,978.83
2019-05-06T00:12:14.508Z,999.90
2019-05-06T00:17:18.637Z,999.90
2019-05-06T00:22:23.763Z,952.03
2019-05-06T00:27:37.326Z,843.87
2019-05-06T00:32:41.065Z,999.90
2019-05-06T00:37:44.799Z,999.90
2019-05-06T00:42:56.426Z,999.90
2019-05-06T00:48:00.142Z,751.50
2019-05-06T00:53:05.486Z,818.03
2019-05-06T00:58:09.427Z,702.07
2019-05-06T01:03:14.126Z,999.90
2019-05-06T01:08:17.962Z,769.53
2019-05-06T01:13:31.042Z,999.90
2019-05-06T01:18:34.756Z,999.90
2019-05-06T01:23:43.746Z,958.80
2019-05-06T01:28:47.772Z,903.80
2019-05-06T01:33:53.434Z,999.90
2019-05-06T01:39:04.420Z,784.97
2019-05-06T01:44:08.285Z,999.90
2019-05-06T01:49:13.760Z,712.50
2019-05-06T01:54:17.975Z,946.07
2019-05-06T01:59:21.692Z,885.00
2019-05-06T02:04:25.513Z,888.60
2019-05-06T02:09:29.318Z,999.90
2019-05-06T02:14:34.137Z,999.90
2019-05-06T02:19:38.675Z,948.97
2019-05-06T02:24:46.255Z,999.90
2019-05-06T02:29:56.094Z,999.90
2019-05-06T02:35:14.310Z,999.90
2019-05-06T02:40:24.952Z,999.90
2019-05-06T02:45:28.213Z,999.90
2019-05-06T02:50:53.689Z,999.90
2019-05-06T02:55:56.767Z,999.90
2019-05-06T03:01:03.533Z,999.90
2019-05-06T03:06:06.747Z,999.90
2019-05-06T03:11:13.470Z,999.90
2019-05-06T03:16:15.973Z,999.90
2019-05-06T03:21:29.499Z,999.90
2019-05-06T03:26:33.320Z,999.90
2019-05-06T03:31:37.029Z,999.90
2019-05-06T03:36:47.667Z,999.90
2019-05-06T03:41:46.222Z,999.90
2019-05-06T03:47:08.254Z,999.90
2019-05-06T03:52:13.629Z,999.90
2019-05-06T03:57:18.921Z,999.90
2019-05-06T04:02:26.618Z,999.90
2019-05-06T04:07:33.796Z,999.90
2019-05-06T04:12:38.055Z,999.90
2019-05-06T04:18:06.978Z,999.90
2019-05-06T04:23:36.699Z,999.90
2019-05-06T04:28:43.331Z,999.90
2019-05-06T04:34:05.151Z,999.90
2019-05-06T04:38:53.962Z,999.90
2019-05-06T04:44:02.900Z,999.90
2019-05-06T04:49:08.286Z,999.90
2019-05-06T04:54:13.419Z,999.90
2019-05-06T04:59:17.103Z,999.90
2019-05-06T05:04:28.359Z,999.90
2019-05-06T05:09:27.240Z,999.90
2019-05-06T05:14:56.475Z,999.90
2019-05-06T05:20:02.089Z,999.90
2019-05-06T05:25:06.551Z,818.57
2019-05-06T05:30:12.474Z,818.67
2019-05-06T05:35:16.272Z,849.07
2019-05-06T05:40:22.440Z,879.87
2019-05-06T05:45:26.324Z,875.60
2019-05-06T05:50:34.616Z,999.90
2019-05-06T05:55:38.333Z,769.43
2019-05-06T06:00:42.633Z,433.40
2019-05-06T06:05:46.524Z,999.90
2019-05-06T06:10:56.046Z,880.37
2019-05-06T06:16:13.018Z,883.13
2019-05-06T06:21:33.208Z,999.90
2019-05-06T06:26:37.271Z,855.70
2019-05-06T06:32:08.754Z,603.80
2019-05-06T06:37:46.995Z,693.30
2019-05-06T06:42:54.422Z,999.90
2019-05-06T06:47:58.320Z,771.17
2019-05-06T06:53:03.013Z,999.90
2019-05-06T06:58:29.458Z,999.90
2019-05-06T07:03:43.151Z,999.90
2019-05-06T07:08:46.986Z,999.90
2019-05-06T07:13:54.091Z,999.90
2019-05-06T07:18:57.836Z,999.90
2019-05-06T07:24:02.207Z,999.90
2019-05-06T07:29:16.864Z,999.90
2019-05-06T07:34:11.993Z,999.90
2019-05-06T07:39:15.884Z,943.20
2019-05-06T07:44:42.334Z,999.90
2019-05-06T07:49:46.299Z,990.00
2019-05-06T07:54:50.102Z,453.67
2019-05-06T07:59:53.818Z,142.70
2019-05-06T08:04:57.791Z,191.07
2019-05-06T08:10:02.276Z,521.03
2019-05-06T08:15:06.665Z,662.80
2019-05-06T08:20:12.924Z,380.73
2019-05-06T08:25:16.804Z,940.83
2019-05-06T08:30:22.909Z,740.47
2019-05-06T08:35:26.014Z,53.10
2019-05-06T08:40:29.742Z,613.10
2019-05-06T08:45:33.845Z,52.73
2019-05-06T08:50:46.302Z,101.23
2019-05-06T08:55:52.746Z,39.20
2019-05-06T09:01:04.336Z,349.93
2019-05-06T09:06:08.037Z,32.50
2019-05-06T09:11:12.251Z,205.00
2019-05-06T09:16:16.098Z,113.63
2019-05-06T09:21:19.836Z,195.90
2019-05-06T09:26:29.303Z,39.80
2019-05-06T09:31:38.405Z,188.97
2019-05-06T09:36:51.336Z,999.90
2019-05-06T09:41:48.982Z,145.73
2019-05-06T09:46:53.166Z,32.43
2019-05-06T09:51:57.064Z,368.77
2019-05-06T09:57:04.848Z,89.30
2019-05-06T10:02:09.194Z,923.80
2019-05-06T10:07:13.091Z,24.90
2019-05-06T10:12:16.935Z,214.87
2019-05-06T10:17:20.682Z,64.13
2019-05-06T10:22:24.718Z,23.43
2019-05-06T10:27:28.421Z,96.57
2019-05-06T10:32:45.621Z,41.90
2019-05-06T10:38:15.699Z,41.70
2019-05-06T10:43:27.432Z,160.27
2019-05-06T10:48:31.395Z,20.80
2019-05-06T10:53:35.103Z,34.17
2019-05-06T10:58:38.823Z,62.03
2019-05-06T11:03:42.615Z,36.27
2019-05-06T11:08:46.341Z,111.80
2019-05-06T11:13:52.246Z,446.23
2019-05-06T11:18:55.826Z,35.20
2019-05-06T11:23:59.611Z,72.47
2019-05-06T11:29:08.489Z,67.67
2019-05-06T11:34:22.396Z,85.70
2019-05-06T11:39:26.144Z,65.77
2019-05-06T11:44:31.970Z,127.80
2019-05-06T11:49:35.330Z,298.20
2019-05-06T11:54:39.306Z,84.67
2019-05-06T11:59:43.481Z,159.43
2019-05-06T12:04:47.382Z,182.47
2019-05-06T12:09:53.912Z,137.50
2019-05-06T12:14:57.079Z,58.73
2019-05-06T12:20:02.974Z,999.90
2019-05-06T12:25:11.739Z,131.03
2019-05-06T12:30:19.245Z,25.33
2019-05-06T12:35:23.048Z,28.93
2019-05-06T12:40:26.800Z,37.67
2019-05-06T12:45:42.747Z,26.67
2019-05-06T12:50:45.707Z,91.83
2019-05-06T12:55:49.450Z,108.13
2019-05-06T13:00:54.294Z,31.90
2019-05-06T13:05:58.278Z,32.10
2019-05-06T13:11:02.731Z,26.87
2019-05-06T13:16:06.586Z,34.27
2019-05-06T13:21:12.555Z,31.17
2019-05-06T13:26:15.724Z,35.63
2019-05-06T13:31:21.686Z,66.77
2019-05-06T13:36:25.004Z,44.10
2019-05-06T13:41:28.720Z,85.03
2019-05-06T13:46:35.893Z,58.77
2019-05-06T13:51:42.904Z,51.10
2019-05-06T13:56:48.888Z,68.30
2019-05-06T14:02:07.306Z,34.77
2019-05-06T14:07:13.027Z,28.50
2019-05-06T14:12:16.739Z,105.03
2019-05-06T14:17:22.330Z,41.07
2019-05-06T14:22:26.231Z,32.93
2019-05-06T14:27:29.936Z,69.43
2019-05-06T14:32:33.700Z,313.57
2019-05-06T14:37:37.935Z,179.63
2019-05-06T14:42:42.372Z,937.70
2019-05-06T14:47:46.395Z,699.47
2019-05-06T14:52:50.246Z,873.57
2019-05-06T14:57:53.959Z,618.93
2019-05-06T15:02:57.746Z,822.13
2019-05-06T15:08:01.459Z,666.40
2019-05-06T15:13:05.526Z,909.70
2019-05-06T15:18:09.271Z,987.40
2019-05-06T15:23:13.132Z,934.07
2019-05-06T15:28:16.962Z,740.37
2019-05-06T15:33:22.991Z,916.40
2019-05-06T15:38:28.103Z,999.90
2019-05-06T15:43:33.333Z,904.60
2019-05-06T15:48:37.507Z,999.90
2019-05-06T15:53:42.177Z,999.90
2019-05-06T15:58:46.019Z,999.90
2019-05-06T16:03:49.741Z,999.90
2019-05-06T16:08:53.564Z,999.90
2019-05-06T16:13:57.552Z,999.90
2019-05-06T16:19:03.872Z,999.90
2019-05-06T16:24:12.823Z,999.90
2019-05-06T16:29:18.977Z,999.90
2019-05-06T16:34:22.869Z,999.90
2019-05-06T16:39:26.943Z,881.00
2019-05-06T16:44:31.079Z,974.97
2019-05-06T16:49:34.927Z,770.20
2019-05-06T16:54:38.736Z,827.90
2019-05-06T16:59:42.524Z,899.37
2019-05-06T17:05:05.410Z,727.93
2019-05-06T17:10:11.751Z,797.10
2019-05-06T17:15:16.039Z,764.73
2019-05-06T17:20:22.644Z,741.53
2019-05-06T17:25:26.114Z,827.47
2019-05-06T17:30:43.131Z,867.47
2019-05-06T17:35:47.004Z,918.77
2019-05-06T17:40:52.373Z,864.97
2019-05-06T17:46:02.578Z,859.53
2019-05-06T17:51:33.898Z,890.53
2019-05-06T17:56:38.724Z,870.37
2019-05-06T18:01:45.722Z,833.97
2019-05-06T18:06:49.540Z,893.67
2019-05-06T18:11:58.819Z,812.90
2019-05-06T18:16:58.827Z,823.00
2019-05-06T18:22:02.712Z,804.07
2019-05-06T18:27:06.697Z,806.67
2019-05-06T18:32:12.607Z,796.17
2019-05-06T18:37:16.185Z,761.57
2019-05-06T18:42:23.255Z,794.33
2019-05-06T18:47:25.679Z,862.00
2019-05-06T18:52:29.479Z,899.67
2019-05-06T18:57:33.400Z,849.80
2019-05-06T19:02:37.173Z,955.23
2019-05-06T19:07:43.342Z,866.30
2019-05-06T19:12:47.039Z,709.30
2019-05-06T19:17:52.609Z,810.23
2019-05-06T19:22:56.576Z,739.43
2019-05-06T19:28:02.242Z,770.50
2019-05-06T19:33:07.169Z,852.67
2019-05-06T19:38:12.492Z,906.97
2019-05-06T19:43:16.408Z,891.03
2019-05-06T19:48:22.172Z,855.83
2019-05-06T19:53:27.012Z,894.03
2019-05-06T19:58:31.698Z,766.97
2019-05-06T20:03:37.099Z,793.07
2019-05-06T20:08:49.587Z,849.27
2019-05-06T20:13:53.767Z,791.80
2019-05-06T20:18:57.668Z,789.30
2019-05-06T20:24:02.278Z,823.83
2019-05-06T20:29:06.203Z,852.20
2019-05-06T20:34:10.050Z,818.40
2019-05-06T20:39:14.808Z,901.70
2019-05-06T20:44:18.841Z,867.77
2019-05-06T20:49:22.597Z,751.60
2019-05-06T20:54:26.360Z,784.67
2019-05-06T20:59:32.067Z,774.93
2019-05-06T21:04:35.961Z,892.57
2019-05-06T21:09:39.735Z,803.90
2019-05-06T21:14:43.990Z,862.07
2019-05-06T21:19:48.159Z,826.43
2019-05-06T21:24:51.947Z,832.43
2019-05-06T21:29:55.966Z,861.07
2019-05-06T21:35:02.229Z,823.47
2019-05-06T21:40:06.049Z,837.70
2019-05-06T21:45:09.959Z,857.00
2019-05-06T21:50:14.520Z,864.57
2019-05-06T21:55:18.673Z,829.17
2019-05-06T22:00:29.727Z,821.43
2019-05-06T22:05:33.587Z,795.07
2019-05-06T22:10:38.209Z,802.97
2019-05-06T22:15:42.311Z,798.13
2019-05-06T22:21:09.748Z,772.47
2019-05-06T22:26:16.200Z,772.07
2019-05-06T22:31:19.236Z,820.93
2019-05-06T22:36:22.980Z,748.97
2019-05-06T22:41:26.685Z,883.63
2019-05-06T22:46:32.758Z,768.87
2019-05-06T22:51:36.082Z,897.90
2019-05-06T22:56:40.056Z,810.73
2019-05-06T23:01:54.597Z,829.03
2019-05-06T23:06:58.802Z,869.63
2019-05-06T23:12:04.779Z,756.33
2019-05-06T23:17:08.190Z,824.63
2019-05-06T23:22:12.199Z,852.50
2019-05-06T23:27:15.956Z,849.03
2019-05-06T23:32:19.707Z,857.17
2019-05-06T23:37:23.312Z,860.10
2019-05-06T23:43:03.697Z,848.63
2019-05-06T23:48:43.894Z,796.07
2019-05-06T23:54:24.055Z,862.87
2019-05-06T23:59:27.771Z,856.10
